Time;durP1;ratioP1;P1;durP2;ratioP2;P2;SDS_P1;SDS_P2;PMS_P1;PMS_P2;Temp;Humidity;BMP_temperature;BMP_pressure;BME280_temperature;BME280_humidity;BME280_pressure;Samples;Min_cycle;Max_cycle;Signal;HPM_P1;HPM_P2
2023/10/13 00:01:30;;;;;;;44.50;21.60;;;20.00;99.90;;;;;;7290037;19;20199;-88
2023/10/13 00:03:56;;;;;;;38.00;21.87;;;20.00;99.90;;;;;;7290554;19;20194;-89
2023/10/13 00:06:22;;;;;;;38.10;22.40;;;20.00;99.90;;;;;;7288911;19;20621;-90
2023/10/13 00:08:48;;;;;;;39.87;22.03;;;20.00;99.90;;;;;;7310372;19;20216;-89
2023/10/13 00:11:15;;;;;;;39.43;22.47;;;20.10;99.90;;;;;;7289437;19;20189;-89
2023/10/13 00:13:50;;;;;;;40.43;22.40;;;20.10;99.90;;;;;;7288598;19;20197;-90
2023/10/13 00:16:27;;;;;;;38.30;22.40;;;20.10;99.90;;;;;;7289820;19;20195;-90
2023/10/13 00:18:57;;;;;;;38.03;22.07;;;20.20;99.90;;;;;;7264607;19;20213;-91
2023/10/13 00:21:35;;;;;;;40.60;22.90;;;20.20;99.90;;;;;;7285986;19;20181;-90
2023/10/13 00:24:05;;;;;;;41.47;22.90;;;20.30;99.90;;;;;;7288935;19;20252;-90
2023/10/13 00:26:35;;;;;;;39.87;22.37;;;20.40;99.90;;;;;;7287834;19;20650;-90
2023/10/13 00:29:15;;;;;;;40.43;22.77;;;20.40;99.90;;;;;;7289251;19;20193;-90
2023/10/13 00:31:42;;;;;;;38.67;22.73;;;20.40;99.90;;;;;;7289112;19;20190;-91
2023/10/13 00:39:36;;;;;;;43.47;23.83;;;20.20;99.90;;;;;;7183100;19;2004388;-88
2023/10/13 00:42:07;;;;;;;43.40;25.17;;;20.20;99.90;;;;;;7286006;19;20186;-89
2023/10/13 00:44:44;;;;;;;43.83;24.27;;;20.20;99.90;;;;;;7287651;19;20193;-88
2023/10/13 00:47:16;;;;;;;44.37;25.53;;;20.10;99.90;;;;;;7287417;19;20218;-89
2023/10/13 00:49:47;;;;;;;43.23;25.50;;;20.00;99.90;;;;;;7288788;19;20195;-90
2023/10/13 00:52:15;;;;;;;46.23;25.33;;;19.90;99.90;;;;;;7287679;19;20193;-90
2023/10/13 00:54:46;;;;;;;43.00;23.10;;;19.80;99.90;;;;;;7286526;19;20223;-90
2023/10/13 00:57:29;;;;;;;41.87;23.50;;;19.70;99.90;;;;;;7288511;19;20191;-89
2023/10/13 01:00:11;;;;;;;42.23;23.33;;;19.80;99.90;;;;;;7185508;19;2004639;-89
2023/10/13 01:02:38;;;;;;;43.43;22.77;;;19.80;99.90;;;;;;7287805;19;20189;-90
2023/10/13 01:05:05;;;;;;;36.03;21.97;;;19.80;99.90;;;;;;7287642;19;20185;-88
2023/10/13 01:07:30;;;;;;;38.10;22.60;;;19.90;99.90;;;;;;7287896;19;20181;-90
2023/10/13 01:09:56;;;;;;;35.67;22.53;;;19.90;99.90;;;;;;7285984;19;20526;-90
2023/10/13 01:12:25;;;;;;;37.20;22.00;;;19.80;99.90;;;;;;7286851;19;20673;-89
2023/10/13 01:14:51;;;;;;;37.47;21.93;;;19.90;99.90;;;;;;7285630;19;20712;-90
2023/10/13 01:17:18;;;;;;;36.30;20.27;;;19.90;99.90;;;;;;7307957;19;20221;-89
2023/10/13 01:19:49;;;;;;;39.60;21.07;;;19.90;99.90;;;;;;7285249;19;20190;-90
2023/10/13 01:22:14;;;;;;;36.00;19.37;;;19.80;99.90;;;;;;7292432;19;20228;-89
2023/10/13 01:24:40;;;;;;;32.43;19.73;;;19.80;99.90;;;;;;7293456;19;20192;-89
2023/10/13 01:27:20;;;;;;;30.93;18.10;;;19.80;99.90;;;;;;7291954;19;20190;-88
2023/10/13 01:29:50;;;;;;;31.43;18.30;;;19.60;99.90;;;;;;7294648;19;20191;-90
2023/10/13 01:32:22;;;;;;;32.50;18.43;;;19.60;99.90;;;;;;7293868;19;20199;-90
2023/10/13 01:34:49;;;;;;;36.87;19.53;;;19.60;99.90;;;;;;7289505;19;20200;-89
2023/10/13 01:37:16;;;;;;;36.33;17.80;;;19.50;99.90;;;;;;7294700;19;20538;-89
2023/10/13 01:39:42;;;;;;;33.73;18.07;;;19.40;99.90;;;;;;7293222;19;20194;-89
2023/10/13 01:42:08;;;;;;;38.83;18.33;;;19.50;99.90;;;;;;7293380;19;20196;-90
2023/10/13 01:44:34;;;;;;;30.57;18.03;;;19.40;99.90;;;;;;7294896;19;20202;-87
2023/10/13 01:47:07;;;;;;;32.53;16.73;;;19.40;99.90;;;;;;7294410;19;20193;-89
2023/10/13 01:49:42;;;;;;;31.60;17.43;;;19.30;99.90;;;;;;7294312;19;20197;-89
2023/10/13 01:52:11;;;;;;;31.23;17.90;;;19.30;99.90;;;;;;7293022;19;20659;-88
2023/10/13 01:54:40;;;;;;;31.30;16.33;;;19.40;99.90;;;;;;7291897;19;20180;-89
2023/10/13 01:57:07;;;;;;;31.30;17.57;;;19.40;99.90;;;;;;7291374;19;20607;-89
2023/10/13 01:59:38;;;;;;;29.47;16.87;;;19.40;99.90;;;;;;7291094;19;20201;-89
2023/10/13 02:02:04;;;;;;;34.50;17.07;;;19.40;99.90;;;;;;7293213;19;20215;-89
2023/10/13 02:04:42;;;;;;;32.07;17.07;;;19.40;99.90;;;;;;7295098;19;20651;-89
2023/10/13 02:07:08;;;;;;;33.93;16.87;;;19.40;99.90;;;;;;7295481;19;20194;-88
2023/10/13 02:09:37;;;;;;;31.47;16.70;;;19.30;99.90;;;;;;7294658;19;20202;-88
2023/10/13 02:12:03;;;;;;;31.17;16.70;;;19.30;99.90;;;;;;7292891;19;20206;-89
2023/10/13 02:14:29;;;;;;;30.67;16.73;;;19.30;99.90;;;;;;7291190;19;20209;-89
2023/10/13 02:16:56;;;;;;;28.43;15.83;;;19.30;99.90;;;;;;7294430;19;20199;-88
2023/10/13 02:19:27;;;;;;;29.03;16.50;;;19.30;99.90;;;;;;7293198;19;20196;-89
2023/10/13 02:21:58;;;;;;;28.50;15.90;;;19.30;99.90;;;;;;7291490;19;20208;-89
2023/10/13 02:24:30;;;;;;;28.53;15.77;;;19.30;99.90;;;;;;7294197;19;20191;-89
2023/10/13 02:27:04;;;;;;;30.30;15.27;;;19.40;99.90;;;;;;7291700;19;20221;-88
2023/10/13 02:29:30;;;;;;;28.57;14.97;;;19.50;99.90;;;;;;7292208;19;20209;-89
2023/10/13 02:31:57;;;;;;;29.10;15.47;;;19.60;99.90;;;;;;7289348;19;20239;-89
2023/10/13 02:34:24;;;;;;;30.73;16.37;;;19.60;99.90;;;;;;7289931;19;20281;-89
2023/10/13 02:36:49;;;;;;;25.60;15.57;;;19.60;99.90;;;;;;7306923;19;20190;-89
2023/10/13 02:39:16;;;;;;;28.07;14.90;;;19.70;99.90;;;;;;7308745;19;20253;-88
2023/10/13 02:41:47;;;;;;;24.73;13.83;;;19.70;99.90;;;;;;7292807;19;20228;-90
2023/10/13 02:44:47;;;;;;;29.73;14.27;;;19.70;99.90;;;;;;7292503;19;20195;-90
2023/10/13 02:47:13;;;;;;;31.47;14.73;;;19.60;99.90;;;;;;7189254;19;2004446;-90
2023/10/13 02:49:43;;;;;;;29.33;14.40;;;19.60;99.90;;;;;;7291108;19;20209;-89
2023/10/13 02:52:09;;;;;;;27.47;14.53;;;19.60;99.90;;;;;;7291727;19;20239;-90
2023/10/13 02:54:50;;;;;;;27.83;13.67;;;19.50;99.90;;;;;;7291134;19;20196;-89
2023/10/13 02:57:16;;;;;;;28.63;14.10;;;19.60;99.90;;;;;;7292690;19;20211;-90
2023/10/13 02:59:46;;;;;;;28.43;14.57;;;19.60;99.90;;;;;;7288415;19;20189;-89
2023/10/13 03:02:27;;;;;;;26.00;13.77;;;19.70;99.90;;;;;;7288969;19;20189;-89
2023/10/13 03:05:09;;;;;;;27.23;13.87;;;19.70;99.90;;;;;;7266269;19;20224;-89
2023/10/13 03:07:36;;;;;;;30.60;13.43;;;19.70;99.90;;;;;;7290475;19;20193;-88
2023/10/13 03:10:09;;;;;;;24.63;12.77;;;19.60;99.90;;;;;;7290234;19;20222;-89
2023/10/13 03:12:40;;;;;;;26.87;13.10;;;19.70;99.90;;;;;;7289985;19;20195;-90
2023/10/13 03:15:16;;;;;;;26.33;12.90;;;19.70;99.90;;;;;;7295694;19;20200;-92
2023/10/13 03:17:43;;;;;;;26.40;12.40;;;19.70;99.90;;;;;;7292722;19;20682;-89
2023/10/13 03:20:24;;;;;;;29.27;12.90;;;19.70;99.90;;;;;;7291144;19;20227;-89
2023/10/13 03:22:53;;;;;;;23.97;10.93;;;19.70;99.90;;;;;;7272469;19;20652;-89
2023/10/13 03:25:42;;;;;;;26.50;12.20;;;19.70;99.90;;;;;;7323197;19;20181;-89
2023/10/13 03:28:11;;;;;;;27.57;11.60;;;19.70;99.90;;;;;;7194410;19;2004352;-88
2023/10/13 03:30:47;;;;;;;24.70;12.37;;;19.60;99.90;;;;;;7297306;19;20191;-88
2023/10/13 03:33:14;;;;;;;28.87;13.13;;;19.60;99.90;;;;;;7293043;19;20252;-88
2023/10/13 03:35:52;;;;;;;28.53;12.93;;;19.60;99.90;;;;;;7294992;19;20201;-88
2023/10/13 03:38:18;;;;;;;26.53;12.40;;;19.60;99.90;;;;;;7294766;19;20305;-89
2023/10/13 03:40:49;;;;;;;26.50;12.40;;;19.60;99.90;;;;;;7292221;19;20181;-89
2023/10/13 03:43:22;;;;;;;25.20;11.97;;;19.70;99.90;;;;;;7290010;19;20297;-88
2023/10/13 03:45:52;;;;;;;27.13;11.40;;;19.60;99.90;;;;;;7290866;19;20684;-88
2023/10/13 03:53:33;;;;;;;24.97;11.07;;;19.60;99.90;;;;;;7290447;19;20192;-88
2023/10/13 03:56:12;;;;;;;25.77;10.73;;;19.50;99.90;;;;;;7291076;19;20197;-88
2023/10/13 03:58:46;;;;;;;32.60;12.10;;;19.50;99.90;;;;;;7288477;19;20201;-89
2023/10/13 04:01:16;;;;;;;31.87;12.27;;;19.50;99.90;;;;;;7287412;19;20192;-89
2023/10/13 04:04:02;;;;;;;25.93;11.10;;;19.60;99.90;;;;;;7289673;19;20206;-89
2023/10/13 04:17:27;;;;;;;28.80;11.07;;;19.60;99.90;;;;;;7278734;19;20196;-88
2023/10/13 04:41:57;;;;;;;31.30;13.47;;;19.70;99.90;;;;;;7288383;19;20192;-89
2023/10/13 04:47:17;;;;;;;29.87;13.70;;;19.80;99.90;;;;;;7287481;19;20189;-90
2023/10/13 04:57:32;;;;;;;28.40;11.60;;;19.40;99.90;;;;;;7296593;19;20206;-88
2023/10/13 05:46:49;;;;;;;25.17;8.50;;;19.60;99.90;;;;;;7297766;19;20222;-91
2023/10/13 05:51:47;;;;;;;22.53;7.40;;;19.70;99.90;;;;;;7293537;19;20645;-91
2023/10/13 06:29:36;;;;;;;18.93;6.53;;;19.90;99.90;;;;;;7289705;19;20199;-90
2023/10/13 06:32:10;;;;;;;18.33;6.70;;;19.90;99.90;;;;;;7288466;19;20261;-90
2023/10/13 06:34:44;;;;;;;23.47;6.33;;;19.80;99.90;;;;;;7288374;19;20193;-90
2023/10/13 06:37:23;;;;;;;23.70;7.00;;;19.90;99.90;;;;;;7289006;19;20206;-90
2023/10/13 06:39:56;;;;;;;17.60;5.63;;;20.00;99.90;;;;;;7289678;19;20201;-90
2023/10/13 06:42:28;;;;;;;16.60;6.03;;;20.00;99.90;;;;;;7267778;19;20185;-90
2023/10/13 06:44:58;;;;;;;18.23;6.43;;;20.00;99.90;;;;;;7289607;19;20193;-91
2023/10/13 06:47:24;;;;;;;18.63;6.00;;;20.10;99.90;;;;;;7288271;19;20745;-91
2023/10/13 06:49:54;;;;;;;17.70;6.10;;;20.20;99.90;;;;;;7304945;19;20185;-91
2023/10/13 06:52:22;;;;;;;19.20;6.73;;;20.30;99.90;;;;;;7303288;19;20911;-89
2023/10/13 06:54:55;;;;;;;15.73;6.23;;;20.30;99.90;;;;;;7309554;19;20193;-90
2023/10/13 06:57:21;;;;;;;22.10;6.17;;;20.40;99.90;;;;;;7276311;19;20197;-91
2023/10/13 06:59:47;;;;;;;18.33;6.67;;;20.40;99.90;;;;;;7312795;19;20672;-90
2023/10/13 07:02:33;;;;;;;16.27;6.07;;;20.40;99.90;;;;;;7289720;19;20192;-91
2023/10/13 07:05:11;;;;;;;19.27;6.27;;;20.40;99.90;;;;;;7188024;19;2004490;-91
2023/10/13 07:07:40;;;;;;;18.40;6.20;;;20.50;99.90;;;;;;7292879;19;20195;-90
2023/10/13 07:10:11;;;;;;;18.43;5.73;;;20.60;99.90;;;;;;7292273;19;20208;-91
2023/10/13 07:12:42;;;;;;;23.80;6.33;;;20.70;99.90;;;;;;7282008;19;20211;-89
2023/10/13 07:17:47;;;;;;;16.97;6.20;;;20.70;99.90;;;;;;7287030;19;20736;-90
2023/10/13 07:23:03;;;;;;;19.53;5.83;;;20.80;99.90;;;;;;7268350;19;20679;-90
2023/10/13 07:25:32;;;;;;;20.40;6.27;;;20.90;99.90;;;;;;7292013;19;20186;-89
2023/10/13 07:27:59;;;;;;;15.90;6.23;;;21.00;99.90;;;;;;7292341;19;20576;-91
2023/10/13 07:30:27;;;;;;;20.13;6.30;;;21.10;99.90;;;;;;7293711;19;20191;-91
2023/10/13 07:32:57;;;;;;;17.07;5.93;;;21.20;99.90;;;;;;7286970;19;20192;-91
2023/10/13 07:35:24;;;;;;;18.67;6.43;;;21.30;99.90;;;;;;7286832;19;20198;-90
2023/10/13 07:37:54;;;;;;;21.57;5.93;;;21.40;99.90;;;;;;7301899;19;20196;-90
2023/10/13 07:42:52;;;;;;;16.33;6.57;;;21.40;99.90;;;;;;7292111;19;20190;-90
2023/10/13 07:45:21;;;;;;;18.20;6.37;;;21.40;99.90;;;;;;7311618;19;20198;-90
2023/10/13 07:47:49;;;;;;;23.50;6.70;;;21.40;99.90;;;;;;7288161;19;20621;-90
2023/10/13 07:50:25;;;;;;;17.67;6.47;;;21.60;99.90;;;;;;7289820;19;20183;-91
2023/10/13 07:52:59;;;;;;;16.70;6.03;;;21.70;99.90;;;;;;7278534;19;20197;-91
2023/10/13 07:55:25;;;;;;;15.23;6.93;;;21.70;99.90;;;;;;7289862;19;20219;-90
2023/10/13 07:57:58;;;;;;;14.77;5.93;;;21.70;99.90;;;;;;7300439;19;20190;-90
2023/10/13 08:00:28;;;;;;;19.23;6.70;;;21.50;99.90;;;;;;7287602;19;20221;-90
2023/10/13 08:05:58;;;;;;;15.73;6.23;;;21.40;99.90;;;;;;7287592;19;20643;-90
2023/10/13 08:08:35;;;;;;;14.57;6.40;;;21.50;99.90;;;;;;7265890;19;20196;-91
2023/10/13 08:11:08;;;;;;;17.43;6.80;;;21.70;99.90;;;;;;7289250;19;20186;-90
2023/10/13 08:13:37;;;;;;;17.37;6.47;;;21.70;99.90;;;;;;7284681;19;20202;-91
2023/10/13 08:16:20;;;;;;;20.00;6.13;;;21.70;99.90;;;;;;7285360;19;20192;-90
2023/10/13 08:18:49;;;;;;;17.47;6.27;;;21.70;99.90;;;;;;7284630;19;20195;-90
2023/10/13 08:21:17;;;;;;;21.30;6.53;;;21.70;99.90;;;;;;7285241;19;20191;-91
2023/10/13 08:26:30;;;;;;;19.10;6.37;;;21.70;99.90;;;;;;7271079;19;20259;-89
2023/10/13 08:29:49;;;;;;;21.40;6.43;;;21.80;99.90;;;;;;7285053;19;20306;-91
2023/10/13 08:37:46;;;;;;;18.63;7.23;;;21.80;99.90;;;;;;7283633;19;20207;-90
2023/10/13 08:48:13;;;;;;;19.03;6.90;;;21.70;99.90;;;;;;7184387;19;2004412;-90
2023/10/13 08:53:31;;;;;;;17.23;6.80;;;21.70;99.90;;;;;;7283737;19;20189;-90
2023/10/13 09:01:48;;;;;;;16.90;6.73;;;21.80;99.90;;;;;;7282564;19;20183;-89
2023/10/13 09:09:58;;;;;;;18.77;7.50;;;22.20;99.90;;;;;;7181774;19;2004451;-89
2023/10/13 09:14:58;;;;;;;16.47;6.67;;;22.00;99.90;;;;;;7282447;19;20188;-89
2023/10/13 09:17:35;;;;;;;15.57;6.77;;;21.90;99.90;;;;;;7283843;19;20197;-89
2023/10/13 09:25:34;;;;;;;16.60;6.60;;;22.00;99.90;;;;;;7285889;19;20203;-89
2023/10/13 09:28:21;;;;;;;18.70;7.00;;;22.00;99.90;;;;;;7278668;19;20234;-89
2023/10/13 09:30:53;;;;;;;18.80;7.60;;;21.90;99.90;;;;;;7284997;19;20661;-89
2023/10/13 09:33:35;;;;;;;17.40;7.13;;;21.90;99.90;;;;;;7284582;19;20704;-89
2023/10/13 09:36:12;;;;;;;18.73;6.80;;;22.10;99.90;;;;;;7183119;19;2004881;-89
2023/10/13 09:38:47;;;;;;;19.47;7.53;;;22.10;99.90;;;;;;7284490;19;20205;-89
2023/10/13 09:41:20;;;;;;;17.67;6.90;;;22.20;99.90;;;;;;7283865;19;20204;-89
2023/10/13 09:43:46;;;;;;;16.33;6.73;;;22.10;99.90;;;;;;7291873;19;20693;-89
2023/10/13 09:46:23;;;;;;;18.87;7.10;;;22.10;99.90;;;;;;7288278;19;20254;-89
2023/10/13 09:49:04;;;;;;;17.60;7.50;;;22.20;99.90;;;;;;7289820;19;20197;-88
2023/10/13 09:51:31;;;;;;;14.93;7.13;;;22.40;99.90;;;;;;7188141;19;2004435;-89
2023/10/13 09:54:06;;;;;;;19.50;7.27;;;22.60;99.90;;;;;;7289609;19;20195;-89
2023/10/13 09:56:54;;;;;;;17.17;7.07;;;22.70;99.90;;;;;;7287928;19;20216;-88
2023/10/13 09:59:34;;;;;;;17.00;6.73;;;22.90;99.90;;;;;;7293227;19;20203;-89
2023/10/13 10:02:08;;;;;;;18.07;7.00;;;23.00;99.90;;;;;;7185142;19;2004441;-90
2023/10/13 10:04:44;;;;;;;18.90;7.00;;;23.00;99.90;;;;;;7290290;19;20530;-90
2023/10/13 10:07:10;;;;;;;18.67;7.37;;;23.00;99.90;;;;;;7291781;19;20276;-89
2023/10/13 10:09:37;;;;;;;21.27;7.90;;;23.10;99.90;;;;;;7294095;19;20193;-89
2023/10/13 10:12:07;;;;;;;18.93;7.17;;;23.10;99.90;;;;;;7290969;19;20191;-90
2023/10/13 10:14:54;;;;;;;18.30;6.53;;;23.20;99.90;;;;;;7288181;19;20223;-89
2023/10/13 10:17:21;;;;;;;21.93;6.27;;;23.10;99.90;;;;;;7287576;19;20213;-90
2023/10/13 10:19:55;;;;;;;24.17;7.47;;;23.10;99.90;;;;;;7310206;19;20197;-89
2023/10/13 10:22:35;;;;;;;19.20;7.07;;;23.30;99.90;;;;;;7282592;19;20185;-89
2023/10/13 10:25:03;;;;;;;23.60;6.63;;;23.40;99.90;;;;;;7291934;19;20244;-90
2023/10/13 10:27:33;;;;;;;16.83;6.47;;;23.60;99.90;;;;;;7296318;19;20185;-90
2023/10/13 10:30:03;;;;;;;23.73;7.20;;;23.50;99.90;;;;;;7295105;19;20204;-90
2023/10/13 10:32:41;;;;;;;25.90;7.17;;;23.40;99.90;;;;;;7298662;19;20188;-89
2023/10/13 10:35:14;;;;;;;18.37;6.33;;;23.40;99.90;;;;;;7294981;19;20189;-90
2023/10/13 10:37:47;;;;;;;21.07;6.60;;;23.40;99.90;;;;;;7292294;19;20226;-90
2023/10/13 10:40:46;;;;;;;20.47;6.57;;;23.40;99.90;;;;;;7298341;19;20249;-90
2023/10/13 10:43:08;;;;;;;18.07;6.53;;;23.40;99.90;;;;;;7192783;19;2004533;-90
2023/10/13 10:45:37;;;;;;;22.93;7.10;;;23.60;99.90;;;;;;7292852;19;20256;-89
2023/10/13 10:48:17;;;;;;;21.37;6.53;;;23.80;99.90;;;;;;7292311;19;20200;-90
2023/10/13 10:50:56;;;;;;;20.63;6.67;;;23.90;99.90;;;;;;7290085;19;20192;-90
2023/10/13 10:53:43;;;;;;;24.17;7.10;;;24.20;99.90;;;;;;7272052;19;20184;-90
2023/10/13 10:56:19;;;;;;;25.87;7.70;;;24.20;99.90;;;;;;7288428;19;20259;-90
2023/10/13 10:58:47;;;;;;;22.60;7.00;;;24.50;99.90;;;;;;7289613;19;20185;-90
2023/10/13 11:01:20;;;;;;;25.00;6.97;;;24.50;99.90;;;;;;7287757;19;20211;-90
2023/10/13 11:04:07;;;;;;;24.83;7.00;;;24.50;99.90;;;;;;7289055;19;20184;-90
2023/10/13 11:06:42;;;;;;;20.23;6.97;;;24.40;99.90;;;;;;7186142;19;2005118;-90
2023/10/13 11:10:06;;;;;;;19.17;6.90;;;24.30;99.90;;;;;;7287420;19;20293;-90
2023/10/13 11:11:57;;;;;;;20.70;7.00;;;24.30;99.90;;;;;;7266458;19;20185;-90
2023/10/13 11:14:25;;;;;;;24.97;7.37;;;24.30;99.90;;;;;;7288433;19;20181;-90
2023/10/13 11:16:59;;;;;;;16.57;6.53;;;24.60;99.90;;;;;;7304532;19;20214;-89
2023/10/13 11:19:34;;;;;;;20.37;7.43;;;24.80;99.90;;;;;;7288831;19;20216;-90
2023/10/13 11:22:29;;;;;;;19.00;7.07;;;24.90;99.90;;;;;;7287628;19;20184;-89
2023/10/13 11:24:59;;;;;;;23.27;7.07;;;24.80;99.90;;;;;;7267049;19;20564;-89
2023/10/13 11:30:25;;;;;;;24.17;6.87;;;25.00;99.90;;;;;;7287958;19;20181;-89
2023/10/13 11:33:11;;;;;;;17.17;6.30;;;24.90;99.90;;;;;;7281269;19;20527;-90
2023/10/13 11:38:27;;;;;;;19.43;6.97;;;24.70;99.90;;;;;;7288511;19;20193;-90
2023/10/13 11:41:08;;;;;;;17.10;6.20;;;24.70;99.90;;;;;;7265160;19;20196;-90
2023/10/13 11:48:37;;;;;;;19.87;6.83;;;24.90;99.90;;;;;;7287440;19;20181;-89
2023/10/13 11:51:07;;;;;;;20.90;6.30;;;24.90;99.90;;;;;;7287911;19;20199;-91
2023/10/13 11:53:36;;;;;;;20.20;6.40;;;24.90;99.90;;;;;;7287569;19;20201;-88
2023/10/13 11:56:09;;;;;;;18.67;6.47;;;24.80;99.90;;;;;;7287252;19;20192;-89
2023/10/13 11:58:40;;;;;;;18.73;6.63;;;24.80;99.90;;;;;;7286808;19;20181;-90
2023/10/13 12:11:50;;;;;;;21.63;6.67;;;24.60;99.90;;;;;;7289634;19;20612;-89
2023/10/13 12:14:21;;;;;;;22.50;6.73;;;24.40;99.90;;;;;;7288886;19;20325;-91
2023/10/13 12:16:52;;;;;;;18.10;6.20;;;24.40;99.90;;;;;;7289575;19;20196;-90
2023/10/13 12:19:28;;;;;;;22.07;6.00;;;24.50;99.90;;;;;;7286779;19;20731;-90
2023/10/13 12:21:55;;;;;;;17.20;6.60;;;24.60;99.90;;;;;;7265622;19;20196;-89
2023/10/13 12:27:03;;;;;;;19.27;6.00;;;24.30;99.90;;;;;;7286747;19;20193;-91
2023/10/13 12:29:29;;;;;;;18.43;5.93;;;24.20;99.90;;;;;;7286251;19;20268;-90
2023/10/13 12:32:09;;;;;;;16.27;6.33;;;24.10;99.90;;;;;;7287096;19;20218;-88
2023/10/13 12:51:40;;;;;;;19.70;6.30;;;23.90;99.90;;;;;;7286800;19;20190;-89
2023/10/13 12:54:13;;;;;;;16.77;5.93;;;23.90;99.90;;;;;;7183866;19;2004420;-89
2023/10/13 12:56:43;;;;;;;16.43;5.73;;;23.90;99.90;;;;;;7286682;19;20189;-89
2023/10/13 12:59:13;;;;;;;21.27;6.47;;;23.80;99.90;;;;;;7285879;19;20185;-89
2023/10/13 13:01:43;;;;;;;14.40;6.17;;;23.70;99.90;;;;;;7285914;19;20184;-89
2023/10/13 13:04:18;;;;;;;24.87;6.33;;;23.80;99.90;;;;;;7282507;19;20188;-90
2023/10/13 13:06:44;;;;;;;14.13;5.80;;;23.70;99.90;;;;;;7285400;19;20327;-90
2023/10/13 13:09:10;;;;;;;20.30;5.97;;;23.70;99.90;;;;;;7284209;19;20647;-90
2023/10/13 13:11:42;;;;;;;17.30;6.10;;;23.90;99.90;;;;;;7286459;19;20185;-90
2023/10/13 13:14:08;;;;;;;15.67;5.97;;;23.90;99.90;;;;;;7284769;19;20202;-90
2023/10/13 13:16:35;;;;;;;16.20;6.00;;;23.90;99.90;;;;;;7285305;19;20177;-90
2023/10/13 13:19:09;;;;;;;16.63;6.20;;;24.10;99.90;;;;;;7290763;19;20260;-89
2023/10/13 13:21:38;;;;;;;20.07;6.17;;;24.10;99.90;;;;;;7291899;19;20181;-90
2023/10/13 13:24:10;;;;;;;18.73;6.40;;;24.10;99.90;;;;;;7293169;19;20260;-89
2023/10/13 13:26:42;;;;;;;14.97;6.13;;;24.00;99.90;;;;;;7291820;19;20649;-90
2023/10/13 13:29:11;;;;;;;15.43;6.00;;;23.90;99.90;;;;;;7292346;19;20257;-90
2023/10/13 13:31:41;;;;;;;16.00;6.13;;;23.90;99.90;;;;;;7288350;19;20200;-90
2023/10/13 13:34:12;;;;;;;14.30;5.27;;;24.00;99.90;;;;;;7291867;19;20209;-90
2023/10/13 13:36:43;;;;;;;16.33;5.83;;;23.90;99.90;;;;;;7292165;19;20213;-90
2023/10/13 13:39:17;;;;;;;17.23;6.03;;;23.90;99.90;;;;;;7292336;19;20188;-90
2023/10/13 13:41:43;;;;;;;18.40;5.53;;;24.10;99.90;;;;;;7291115;19;20207;-90
2023/10/13 13:44:15;;;;;;;14.60;5.60;;;24.10;99.90;;;;;;7293155;19;20671;-91
2023/10/13 13:46:41;;;;;;;17.90;5.60;;;24.20;99.90;;;;;;7292880;19;22513;-90
2023/10/13 13:49:17;;;;;;;13.80;6.30;;;24.30;99.90;;;;;;7291172;19;20189;-87
2023/10/13 13:51:51;;;;;;;18.07;6.07;;;24.30;99.90;;;;;;7287643;19;20192;-88
2023/10/13 13:54:20;;;;;;;17.07;5.90;;;24.20;99.90;;;;;;7285068;19;20256;-88
2023/10/13 13:56:47;;;;;;;18.00;6.23;;;24.30;99.90;;;;;;7286303;19;20196;-88
2023/10/13 13:59:18;;;;;;;18.23;5.80;;;24.30;99.90;;;;;;7287387;19;20527;-88
2023/10/13 14:01:47;;;;;;;12.03;5.37;;;24.30;99.90;;;;;;7286931;19;20188;-89
2023/10/13 14:04:17;;;;;;;13.43;5.60;;;24.30;99.90;;;;;;7288179;19;20540;-88
2023/10/13 14:06:44;;;;;;;18.87;6.13;;;24.30;99.90;;;;;;7288938;19;20932;-90
2023/10/13 14:14:47;;;;;;;16.13;5.83;;;24.20;99.90;;;;;;7288668;19;20612;-90
2023/10/13 14:17:13;;;;;;;14.97;5.80;;;24.40;99.90;;;;;;7289554;19;20200;-90
2023/10/13 14:19:40;;;;;;;19.93;6.87;;;24.40;99.90;;;;;;7290271;19;20256;-90
2023/10/13 14:22:06;;;;;;;19.50;6.20;;;24.30;99.90;;;;;;7288649;19;20196;-90
2023/10/13 14:24:35;;;;;;;20.47;5.60;;;24.40;99.90;;;;;;7290274;19;20185;-89
2023/10/13 14:27:19;;;;;;;16.77;5.27;;;24.30;99.90;;;;;;7289997;19;20291;-91
2023/10/13 14:29:45;;;;;;;18.17;5.80;;;24.20;99.90;;;;;;7298486;19;20200;-89
2023/10/13 14:32:13;;;;;;;13.93;5.77;;;24.10;99.90;;;;;;7290426;19;20599;-90
2023/10/13 14:34:44;;;;;;;17.43;5.87;;;24.10;99.90;;;;;;7289301;19;20181;-89
2023/10/13 14:37:13;;;;;;;15.87;6.17;;;23.90;99.90;;;;;;7290830;19;20216;-90
2023/10/13 14:39:41;;;;;;;13.83;6.23;;;23.90;99.90;;;;;;7290058;19;20200;-89
2023/10/13 14:42:07;;;;;;;18.97;6.60;;;23.90;99.90;;;;;;7288714;19;20193;-89
2023/10/13 14:44:34;;;;;;;15.27;5.97;;;23.90;99.90;;;;;;7290800;19;20294;-87
2023/10/13 14:47:05;;;;;;;16.00;5.97;;;24.00;99.90;;;;;;7289357;19;20177;-90
2023/10/13 14:49:31;;;;;;;15.13;6.20;;;23.90;99.90;;;;;;7288875;19;20189;-90
2023/10/13 14:51:59;;;;;;;15.70;5.90;;;23.80;99.90;;;;;;7289476;19;20188;-89
2023/10/13 14:54:34;;;;;;;15.37;6.07;;;23.80;99.90;;;;;;7287737;19;20274;-90
2023/10/13 14:57:01;;;;;;;13.97;5.40;;;23.80;99.90;;;;;;7289771;19;20264;-91
2023/10/13 14:59:32;;;;;;;12.97;6.10;;;23.60;99.90;;;;;;7288493;19;20177;-90
2023/10/13 15:01:59;;;;;;;17.30;6.20;;;23.50;99.90;;;;;;7287498;19;20276;-90
2023/10/13 15:04:25;;;;;;;16.80;6.07;;;23.50;99.90;;;;;;7288451;19;20672;-90
2023/10/13 15:06:51;;;;;;;13.67;5.80;;;23.40;99.90;;;;;;7309461;19;20188;-90
2023/10/13 15:09:23;;;;;;;17.97;6.13;;;23.40;99.90;;;;;;7287446;19;20196;-90
2023/10/13 15:11:53;;;;;;;19.07;5.83;;;23.50;99.90;;;;;;7289267;19;20189;-90
2023/10/13 15:14:22;;;;;;;17.43;6.30;;;23.40;99.90;;;;;;7288155;19;20187;-91
2023/10/13 15:16:49;;;;;;;11.10;5.57;;;23.30;99.90;;;;;;7288767;19;20220;-90
2023/10/13 15:19:18;;;;;;;17.57;6.00;;;23.30;99.90;;;;;;7287480;19;20203;-90
2023/10/13 15:21:49;;;;;;;14.70;5.80;;;23.20;99.90;;;;;;7287168;19;20252;-90
2023/10/13 15:24:16;;;;;;;15.30;5.83;;;23.10;99.90;;;;;;7289304;19;20199;-91
2023/10/13 15:26:48;;;;;;;13.83;5.93;;;23.10;99.90;;;;;;7289269;19;20229;-90
2023/10/13 15:29:24;;;;;;;16.67;6.30;;;23.00;99.90;;;;;;7287967;19;20195;-90
2023/10/13 15:34:28;;;;;;;13.27;5.20;;;22.80;99.90;;;;;;7287762;19;20605;-90
2023/10/13 15:36:55;;;;;;;13.93;6.10;;;22.80;99.90;;;;;;7279320;19;20197;-90
2023/10/13 15:39:28;;;;;;;15.37;6.27;;;22.80;99.90;;;;;;7306852;19;20268;-90
2023/10/13 15:41:58;;;;;;;15.50;5.70;;;22.60;99.90;;;;;;7278368;19;20203;-89
2023/10/13 15:44:25;;;;;;;14.50;5.93;;;22.40;99.90;;;;;;7287744;19;20193;-90
2023/10/13 15:46:56;;;;;;;14.53;5.87;;;22.30;99.90;;;;;;7303835;19;20259;-90
2023/10/13 15:49:22;;;;;;;17.63;6.13;;;22.30;99.90;;;;;;7308871;19;20263;-90
2023/10/13 15:51:49;;;;;;;12.60;5.57;;;22.30;99.90;;;;;;7288494;19;20185;-89
2023/10/13 15:54:18;;;;;;;15.57;5.87;;;22.30;99.90;;;;;;7285109;19;20183;-89
2023/10/13 15:56:45;;;;;;;17.30;6.10;;;22.40;99.90;;;;;;7288315;19;20193;-90
2023/10/13 15:59:11;;;;;;;15.73;5.80;;;22.30;99.90;;;;;;7287805;19;25810;-91
2023/10/13 16:01:40;;;;;;;18.93;6.73;;;22.40;99.90;;;;;;7290819;19;20184;-89
2023/10/13 16:04:13;;;;;;;15.10;6.20;;;22.30;99.90;;;;;;7289346;19;20188;-89
2023/10/13 16:06:50;;;;;;;15.33;5.70;;;22.40;99.90;;;;;;7297386;19;20192;-90
2023/10/13 16:09:33;;;;;;;15.43;6.33;;;22.40;99.90;;;;;;7296795;19;20200;-89
2023/10/13 16:12:11;;;;;;;14.63;6.03;;;22.30;99.90;;;;;;7186856;19;2004397;-90
2023/10/13 16:14:40;;;;;;;18.50;5.80;;;22.10;99.90;;;;;;7306791;19;20681;-91
2023/10/13 16:17:08;;;;;;;15.10;6.27;;;21.90;99.90;;;;;;7287909;19;20629;-91
2023/10/13 16:19:34;;;;;;;15.83;6.40;;;21.90;99.90;;;;;;7285559;19;20268;-91
2023/10/13 16:22:00;;;;;;;15.03;6.27;;;21.90;99.90;;;;;;7285487;19;20192;-91
2023/10/13 16:24:27;;;;;;;18.97;6.77;;;21.80;99.90;;;;;;7287107;19;20220;-91
2023/10/13 16:26:53;;;;;;;19.90;6.50;;;21.80;99.90;;;;;;7296509;19;20525;-91
2023/10/13 16:29:19;;;;;;;13.80;5.77;;;21.60;99.90;;;;;;7307557;19;20195;-91
2023/10/13 16:31:48;;;;;;;19.93;6.97;;;21.60;99.90;;;;;;7287034;19;20212;-90
2023/10/13 16:34:18;;;;;;;18.77;6.63;;;21.60;99.90;;;;;;7285423;19;20686;-91
2023/10/13 16:36:46;;;;;;;18.10;6.80;;;21.50;99.90;;;;;;7287698;19;20202;-91
2023/10/13 16:39:16;;;;;;;17.33;6.37;;;21.50;99.90;;;;;;7287780;19;20193;-91
2023/10/13 16:41:45;;;;;;;15.20;6.50;;;21.50;99.90;;;;;;7286520;19;20199;-91
2023/10/13 16:44:11;;;;;;;16.97;6.87;;;21.50;99.90;;;;;;7286629;19;20193;-91
2023/10/13 16:46:40;;;;;;;18.63;6.90;;;21.50;99.90;;;;;;7284949;19;20255;-90
2023/10/13 16:49:06;;;;;;;18.43;6.60;;;21.50;99.90;;;;;;7285710;19;20196;-91
2023/10/13 16:51:33;;;;;;;20.27;7.77;;;21.50;99.90;;;;;;7282637;19;20556;-91